Time;durP1;ratioP1;P1;durP2;ratioP2;P2;SDS_P1;SDS_P2;PMS_P1;PMS_P2;Temp;Humidity;BMP_temperature;BMP_pressure;BME280_temperature;BME280_humidity;BME280_pressure;Samples;Min_cycle;Max_cycle;Signal;HPM_P1;HPM_P2
2022/04/13 00:01:01;;;;;;;0.60;0.10;;;16.30;99.90;;;;;;5033805;28;20471;-79
2022/04/13 00:03:29;;;;;;;0.60;0.10;;;16.30;99.90;;;;;;5030183;28;20468;-78
2022/04/13 00:05:57;;;;;;;0.60;0.10;;;16.30;99.90;;;;;;5028914;28;20447;-79
2022/04/13 00:08:26;;;;;;;0.60;0.10;;;16.20;99.90;;;;;;5017036;28;20464;-79
2022/04/13 00:10:54;;;;;;;0.60;0.10;;;16.20;99.90;;;;;;5017046;28;20546;-79
2022/04/13 00:13:22;;;;;;;0.60;0.10;;;16.10;99.90;;;;;;5016468;28;20518;-79
2022/04/13 00:15:50;;;;;;;0.60;0.10;;;16.10;99.90;;;;;;5016266;28;20483;-79
2022/04/13 00:18:18;;;;;;;0.60;0.20;;;;;;;;;;5015397;28;20446;-79
2022/04/13 00:20:46;;;;;;;0.60;0.10;;;16.00;99.90;;;;;;5020392;28;20974;-79
2022/04/13 00:23:15;;;;;;;1.90;1.80;;;15.90;99.90;;;;;;5048928;28;20469;-79
2022/04/13 00:25:44;;;;;;;0.60;0.10;;;15.90;99.90;;;;;;5050081;28;20456;-79
2022/04/13 00:28:12;;;;;;;0.60;0.10;;;15.90;99.90;;;;;;5033955;28;20462;-80
2022/04/13 00:30:41;;;;;;;0.60;0.13;;;15.90;99.90;;;;;;5036542;28;20452;-79
2022/04/13 00:33:09;;;;;;;0.60;0.10;;;15.90;99.90;;;;;;5035277;28;20925;-80
2022/04/13 00:35:37;;;;;;;0.60;0.20;;;15.90;99.90;;;;;;5048205;28;20467;-79
2022/04/13 00:38:06;;;;;;;0.60;0.10;;;15.80;99.90;;;;;;5048084;28;20513;-79
2022/04/13 00:40:37;;;;;;;0.60;0.10;;;15.80;99.90;;;;;;5048312;28;20460;-78
2022/04/13 00:43:07;;;;;;;0.60;0.10;;;15.80;99.90;;;;;;5051521;28;20471;-78
2022/04/13 00:45:35;;;;;;;0.60;0.10;;;15.80;99.90;;;;;;5045981;28;20443;-79
2022/04/13 00:48:06;;;;;;;0.60;0.10;;;15.80;99.90;;;;;;5045663;28;20449;-78
2022/04/13 00:50:34;;;;;;;0.60;0.10;;;15.80;99.90;;;;;;5039978;28;20455;-79
2022/04/13 00:53:05;;;;;;;0.60;0.10;;;15.80;99.90;;;;;;5036436;28;20859;-79
2022/04/13 00:55:37;;;;;;;0.60;0.10;;;15.70;99.90;;;;;;5036202;28;20487;-80
2022/04/13 00:58:08;;;;;;;0.60;0.10;;;15.70;99.90;;;;;;5035538;28;20450;-79
2022/04/13 01:00:38;;;;;;;0.60;0.10;;;15.70;99.90;;;;;;5047833;28;20439;-78
2022/04/13 01:03:07;;;;;;;0.60;0.10;;;15.70;99.90;;;;;;5048506;28;20473;-80
2022/04/13 01:05:39;;;;;;;0.60;0.10;;;15.70;99.90;;;;;;5038884;28;20463;-78
2022/04/13 01:08:08;;;;;;;0.60;0.10;;;15.70;99.90;;;;;;5036520;28;20940;-79
2022/04/13 01:10:37;;;;;;;0.60;0.10;;;15.60;99.90;;;;;;5036107;28;20865;-79
2022/04/13 01:13:05;;;;;;;0.60;0.10;;;15.60;99.90;;;;;;5036137;28;20512;-78
2022/04/13 01:15:35;;;;;;;0.60;0.10;;;15.60;99.90;;;;;;5036617;28;20455;-80
2022/04/13 01:18:03;;;;;;;0.60;0.10;;;15.60;99.90;;;;;;5037198;28;20452;-79
2022/04/13 01:20:32;;;;;;;0.60;0.10;;;15.60;99.90;;;;;;5035996;28;20988;-80
2022/04/13 01:23:01;;;;;;;0.60;0.10;;;15.60;99.90;;;;;;5026359;28;20502;-80
2022/04/13 01:25:30;;;;;;;0.60;0.10;;;15.60;99.90;;;;;;5020322;28;20963;-79
2022/04/13 01:27:58;;;;;;;0.60;0.10;;;15.60;99.90;;;;;;5014660;28;20535;-80
2022/04/13 01:30:27;;;;;;;0.60;0.10;;;15.60;99.90;;;;;;5016435;28;20491;-79
2022/04/13 01:32:55;;;;;;;0.60;0.13;;;15.60;99.90;;;;;;5018116;28;20484;-80
2022/04/13 01:35:24;;;;;;;0.60;0.10;;;15.60;99.90;;;;;;5023875;28;20491;-80
2022/04/13 01:37:52;;;;;;;0.60;0.10;;;;;;;;;;5050754;28;20455;-78
2022/04/13 01:40:22;;;;;;;0.60;0.10;;;15.60;99.90;;;;;;5056511;28;20495;-79
2022/04/13 01:42:50;;;;;;;0.60;0.10;;;15.60;99.90;;;;;;5041247;28;20470;-79
2022/04/13 01:45:20;;;;;;;0.60;0.10;;;15.60;99.90;;;;;;5047117;28;20501;-79
2022/04/13 01:47:49;;;;;;;0.60;0.13;;;15.60;99.90;;;;;;5038289;28;20802;-79
2022/04/13 01:50:18;;;;;;;0.60;0.10;;;15.60;99.90;;;;;;5040713;28;20925;-78
2022/04/13 01:52:47;;;;;;;0.60;0.10;;;15.60;99.90;;;;;;5043729;28;20471;-79
2022/04/13 01:55:15;;;;;;;0.60;0.13;;;15.60;99.90;;;;;;5019623;28;20461;-79
2022/04/13 01:57:45;;;;;;;0.60;0.10;;;15.50;99.90;;;;;;5017967;28;20452;-80
2022/04/13 02:00:14;;;;;;;0.60;0.20;;;15.50;99.90;;;;;;5019303;28;20451;-79
2022/04/13 02:02:42;;;;;;;0.60;0.10;;;15.50;99.90;;;;;;5050664;28;20434;-79
2022/04/13 02:05:11;;;;;;;0.60;0.10;;;15.50;99.90;;;;;;5059313;28;20459;-78
2022/04/13 02:07:40;;;;;;;0.60;0.10;;;15.50;99.90;;;;;;5056632;28;20439;-79
2022/04/13 02:10:09;;;;;;;0.60;0.10;;;15.40;99.90;;;;;;5038537;28;20481;-78
2022/04/13 02:12:38;;;;;;;0.60;0.10;;;15.30;99.90;;;;;;5043603;28;20448;-79
2022/04/13 02:15:09;;;;;;;0.60;0.10;;;15.30;99.90;;;;;;5066790;28;20484;-79
2022/04/13 02:17:38;;;;;;;0.60;0.10;;;15.20;99.90;;;;;;5054595;28;20455;-79
2022/04/13 02:20:07;;;;;;;0.60;0.10;;;15.20;99.90;;;;;;5041419;28;20479;-79
2022/04/13 02:22:36;;;;;;;0.60;0.10;;;15.10;99.90;;;;;;5040588;28;20937;-80
2022/04/13 02:25:14;;;;;;;0.60;0.10;;;;;;;;;;5039349;28;20468;-80
2022/04/13 02:27:43;;;;;;;0.60;0.10;;;15.10;99.90;;;;;;5048556;28;20472;-77
2022/04/13 02:30:12;;;;;;;0.60;0.10;;;15.10;99.90;;;;;;5050170;28;20482;-79
2022/04/13 02:32:43;;;;;;;0.60;0.20;;;15.10;99.90;;;;;;5049832;28;20443;-80
2022/04/13 02:35:12;;;;;;;0.60;0.10;;;15.10;99.90;;;;;;5038552;28;20485;-79
2022/04/13 02:37:40;;;;;;;0.60;0.10;;;15.30;99.90;;;;;;5038230;28;20769;-79
2022/04/13 02:40:09;;;;;;;0.60;0.10;;;15.10;99.90;;;;;;5037355;28;20448;-79
2022/04/13 02:42:37;;;;;;;0.60;0.10;;;15.10;99.90;;;;;;5037517;28;20436;-79
2022/04/13 02:45:06;;;;;;;0.60;0.10;;;15.10;99.90;;;;;;5037256;28;20462;-79
2022/04/13 02:47:36;;;;;;;0.60;0.20;;;15.10;99.90;;;;;;5037382;28;20841;-79
2022/04/13 02:50:07;;;;;;;0.60;0.10;;;15.10;99.90;;;;;;5039169;28;20455;-80
2022/04/13 02:52:35;;;;;;;0.60;0.10;;;15.00;99.90;;;;;;5044160;28;20470;-79
2022/04/13 02:55:03;;;;;;;0.60;0.10;;;15.00;99.90;;;;;;5070147;23;20493;-74
2022/04/13 02:57:31;;;;;;;0.60;0.10;;;15.00;99.90;;;;;;5061960;28;20440;-75
2022/04/13 02:59:59;;;;;;;0.60;0.10;;;15.00;99.90;;;;;;5062505;28;20460;-75
2022/04/13 03:02:29;;;;;;;0.60;0.10;;;15.00;99.90;;;;;;5065263;28;20441;-75
2022/04/13 03:04:59;;;;;;;0.60;0.10;;;15.00;99.90;;;;;;5074837;28;20486;-75
2022/04/13 03:07:29;;;;;;;0.60;0.10;;;15.00;99.90;;;;;;5074412;28;20441;-74
2022/04/13 03:09:58;;;;;;;0.60;0.10;;;15.00;99.90;;;;;;5068450;28;20488;-74
2022/04/13 03:12:26;;;;;;;0.60;0.10;;;14.90;99.90;;;;;;5065322;28;20446;-75
2022/04/13 03:14:53;;;;;;;0.60;0.20;;;15.00;99.90;;;;;;5054540;28;20581;-75
2022/04/13 03:17:23;;;;;;;0.60;0.10;;;14.90;99.90;;;;;;5054713;28;20525;-75
2022/04/13 03:19:50;;;;;;;0.60;0.10;;;14.90;99.90;;;;;;5054766;28;20442;-75
2022/04/13 03:22:22;;;;;;;0.60;0.10;;;14.90;99.90;;;;;;5054624;28;20942;-75
2022/04/13 03:24:51;;;;;;;0.60;0.20;;;14.80;99.90;;;;;;5054973;28;20462;-75
2022/04/13 03:27:19;;;;;;;0.60;0.17;;;14.80;99.90;;;;;;5036544;28;20452;-75
2022/04/13 03:29:47;;;;;;;0.60;0.10;;;14.80;99.90;;;;;;5034575;28;20451;-75
2022/04/13 03:32:14;;;;;;;0.60;0.10;;;14.80;99.90;;;;;;5034856;28;20454;-75
2022/04/13 03:34:43;;;;;;;0.60;0.20;;;;;;;;;;5035274;28;20486;-75
2022/04/13 03:37:11;;;;;;;0.60;0.10;;;14.80;99.90;;;;;;5035576;28;20449;-75
2022/04/13 03:39:40;;;;;;;0.60;0.10;;;14.80;99.90;;;;;;5035050;28;20454;-75
2022/04/13 03:42:08;;;;;;;0.60;0.10;;;14.70;99.90;;;;;;5058762;28;20581;-74
2022/04/13 03:44:36;;;;;;;0.60;0.10;;;14.70;99.90;;;;;;5062288;28;20914;-74
2022/04/13 03:47:05;;;;;;;0.60;0.10;;;14.70;99.90;;;;;;5061631;28;20438;-75
2022/04/13 03:49:33;;;;;;;0.60;0.10;;;14.60;99.90;;;;;;5068328;28;20507;-75
2022/04/13 03:52:01;;;;;;;0.60;0.10;;;14.60;99.90;;;;;;5066114;28;20888;-76
2022/04/13 03:54:29;;;;;;;0.60;0.10;;;14.50;99.90;;;;;;5074268;28;20487;-74
2022/04/13 03:56:58;;;;;;;0.60;0.10;;;;;;;;;;5073816;28;20492;-74
2022/04/13 03:59:26;;;;;;;0.60;0.10;;;14.50;99.90;;;;;;5074886;28;20446;-75
2022/04/13 04:01:54;;;;;;;0.60;0.10;;;14.40;99.90;;;;;;5070287;28;20916;-74
2022/04/13 04:04:22;;;;;;;0.60;0.20;;;14.40;99.90;;;;;;5062224;28;20457;-75
2022/04/13 04:06:51;;;;;;;0.60;0.10;;;14.40;99.90;;;;;;5033013;28;20447;-76
2022/04/13 04:09:18;;;;;;;0.60;0.10;;;14.40;99.90;;;;;;5034021;28;20444;-76
2022/04/13 04:11:46;;;;;;;0.60;0.10;;;14.30;99.90;;;;;;5056364;28;20450;-75
2022/04/13 04:14:15;;;;;;;0.60;0.10;;;14.20;99.90;;;;;;5071271;28;20589;-76
2022/04/13 04:16:43;;;;;;;0.60;0.20;;;14.20;99.90;;;;;;5073738;28;20524;-75
2022/04/13 04:19:11;;;;;;;0.60;0.10;;;14.10;99.90;;;;;;5073651;28;20499;-75
2022/04/13 04:21:39;;;;;;;0.60;0.10;;;14.10;99.90;;;;;;5056326;28;20457;-76
2022/04/13 04:24:08;;;;;;;0.60;0.10;;;14.10;99.90;;;;;;5052435;28;20460;-77
2022/04/13 04:26:36;;;;;;;0.60;0.10;;;14.10;99.90;;;;;;5057522;28;20473;-75
2022/04/13 04:29:04;;;;;;;0.60;0.10;;;14.00;99.90;;;;;;5069713;28;20448;-75
2022/04/13 04:34:19;;;;;;;0.70;0.37;;;14.00;99.90;;;;;;5061978;28;20527;-76
2022/04/13 04:36:47;;;;;;;0.60;0.10;;;14.00;99.90;;;;;;5053126;28;20463;-75
2022/04/13 04:39:15;;;;;;;0.60;0.10;;;14.00;99.90;;;;;;5051332;28;20460;-76
2022/04/13 04:41:43;;;;;;;0.60;0.10;;;13.90;99.90;;;;;;5059694;28;20774;-74
2022/04/13 04:44:11;;;;;;;0.60;0.10;;;13.90;99.90;;;;;;5060678;28;20464;-75
2022/04/13 04:46:40;;;;;;;0.60;0.10;;;13.90;99.90;;;;;;5052605;28;20452;-76
2022/04/13 04:49:08;;;;;;;0.60;0.10;;;13.80;99.90;;;;;;5052047;28;20445;-75
2022/04/13 04:51:36;;;;;;;0.60;0.10;;;13.80;99.90;;;;;;5044163;28;20486;-75
2022/04/13 04:54:05;;;;;;;0.60;0.10;;;13.80;99.90;;;;;;5031860;28;20472;-75
2022/04/13 04:56:34;;;;;;;0.60;0.10;;;13.70;99.90;;;;;;5031719;28;20487;-75
2022/04/13 04:59:01;;;;;;;0.60;0.20;;;13.70;99.90;;;;;;5032526;28;20441;-76
2022/04/13 05:01:30;;;;;;;0.60;0.10;;;13.70;99.90;;;;;;5032117;28;20457;-74
2022/04/13 05:03:59;;;;;;;11.40;10.97;;;13.70;99.90;;;;;;5031843;28;20465;-74
2022/04/13 05:06:29;;;;;;;0.60;0.10;;;13.80;99.90;;;;;;5033721;28;20441;-76
2022/04/13 05:08:57;;;;;;;0.60;0.10;;;13.70;99.90;;;;;;5052516;28;20448;-75
2022/04/13 05:11:25;;;;;;;0.60;0.10;;;13.80;99.90;;;;;;5051426;28;20471;-75
2022/04/13 05:13:53;;;;;;;0.60;0.20;;;13.80;99.90;;;;;;5051038;28;20451;-76
2022/04/13 05:16:21;;;;;;;0.60;0.10;;;13.80;99.90;;;;;;5041965;28;20484;-76
2022/04/13 05:18:49;;;;;;;0.67;0.30;;;13.80;99.90;;;;;;5039330;28;20964;-75
2022/04/13 05:21:18;;;;;;;0.60;0.10;;;13.80;99.90;;;;;;5035673;28;20444;-76
2022/04/13 05:23:46;;;;;;;0.60;0.10;;;14.00;99.90;;;;;;5054170;28;20921;-76
2022/04/13 05:26:18;;;;;;;0.60;0.10;;;13.90;99.90;;;;;;5050528;28;20926;-76
2022/04/13 05:28:47;;;;;;;0.60;0.20;;;14.00;99.90;;;;;;5039917;28;20437;-76
2022/04/13 05:31:16;;;;;;;0.60;0.10;;;14.00;99.90;;;;;;5049765;28;20467;-76
2022/04/13 05:33:44;;;;;;;0.73;0.50;;;14.00;99.90;;;;;;5051638;28;20450;-76
2022/04/13 05:36:11;;;;;;;0.60;0.10;;;14.00;99.90;;;;;;5051010;28;20475;-74
2022/04/13 05:38:41;;;;;;;0.60;0.10;;;14.10;99.90;;;;;;5038484;28;20455;-75
2022/04/13 05:41:09;;;;;;;0.60;0.10;;;14.30;99.90;;;;;;5031853;28;20440;-75
2022/04/13 05:43:37;;;;;;;0.60;0.10;;;;;;;;;;5044160;28;20546;-76
2022/04/13 05:46:05;;;;;;;0.60;0.10;;;14.50;99.90;;;;;;5051580;28;20443;-76
2022/04/13 05:48:33;;;;;;;0.60;0.10;;;14.70;99.90;;;;;;5047362;28;20459;-77
2022/04/13 05:51:00;;;;;;;0.60;0.10;;;14.80;99.90;;;;;;5060599;28;20477;-76
2022/04/13 05:53:30;;;;;;;0.60;0.30;;;14.40;99.90;;;;;;5042151;28;20447;-76
2022/04/13 05:56:00;;;;;;;0.60;0.20;;;14.80;99.90;;;;;;5031504;28;20810;-76
2022/04/13 05:58:28;;;;;;;0.60;0.10;;;14.80;99.90;;;;;;5031389;28;20427;-75
2022/04/13 06:00:56;;;;;;;0.60;0.10;;;14.70;99.90;;;;;;5040049;28;20514;-76
2022/04/13 06:03:25;;;;;;;0.60;0.10;;;14.80;99.90;;;;;;5048458;28;20496;-75
2022/04/13 06:06:10;;;;;;;0.60;0.10;;;14.80;99.90;;;;;;5047926;28;20435;-76
2022/04/13 06:08:38;;;;;;;0.60;0.10;;;14.80;99.90;;;;;;5049820;28;20444;-76
2022/04/13 06:11:08;;;;;;;0.60;0.10;;;14.80;99.90;;;;;;5038907;28;20850;-76
2022/04/13 06:13:36;;;;;;;0.80;0.30;;;14.80;99.90;;;;;;5032961;28;20453;-76
2022/04/13 06:16:04;;;;;;;0.60;0.10;;;14.80;99.90;;;;;;5050668;28;21010;-75
2022/04/13 06:18:32;;;;;;;0.60;0.10;;;14.90;99.90;;;;;;5051389;28;20454;-77
2022/04/13 06:21:00;;;;;;;0.60;0.10;;;14.90;99.90;;;;;;5051442;28;20474;-77
2022/04/13 06:23:28;;;;;;;0.60;0.10;;;14.90;99.90;;;;;;5051035;28;21076;-77
2022/04/13 06:25:56;;;;;;;0.60;0.10;;;15.00;99.90;;;;;;5046524;28;20840;-77
2022/04/13 06:28:25;;;;;;;0.60;0.10;;;15.00;99.90;;;;;;5042112;28;20462;-75
2022/04/13 06:30:53;;;;;;;0.60;0.30;;;15.10;99.90;;;;;;5035329;28;20447;-77
2022/04/13 06:33:20;;;;;;;0.60;0.20;;;15.10;99.90;;;;;;5035041;28;20467;-76
2022/04/13 06:35:49;;;;;;;0.60;0.10;;;;;;;;;;5034603;28;20486;-76
2022/04/13 06:38:17;;;;;;;0.60;0.10;;;15.20;99.90;;;;;;5033985;28;20443;-77
2022/04/13 06:40:45;;;;;;;0.60;0.20;;;15.20;99.90;;;;;;5034308;28;20455;-77
2022/04/13 06:43:12;;;;;;;0.60;0.10;;;15.20;99.90;;;;;;5034266;28;20447;-76
2022/04/13 06:45:42;;;;;;;0.60;0.10;;;15.20;99.90;;;;;;5033575;28;20482;-76
2022/04/13 06:48:10;;;;;;;0.60;0.10;;;15.30;99.90;;;;;;5033507;28;20443;-77
2022/04/13 06:50:38;;;;;;;0.60;0.10;;;15.30;99.90;;;;;;5034772;28;20789;-76
2022/04/13 06:53:06;;;;;;;0.60;0.20;;;15.40;99.90;;;;;;5040666;28;20442;-77
2022/04/13 06:55:34;;;;;;;0.60;0.10;;;15.40;99.90;;;;;;5034883;28;20495;-76
2022/04/13 06:58:02;;;;;;;0.60;0.10;;;15.40;99.90;;;;;;5040633;28;20534;-78
2022/04/13 07:00:30;;;;;;;0.60;0.10;;;15.50;99.90;;;;;;5054988;28;20454;-77
2022/04/13 07:02:59;;;;;;;0.60;0.20;;;15.50;99.90;;;;;;5054830;28;20524;-78
2022/04/13 07:05:43;;;;;;;0.60;0.10;;;;;;;;;;5054455;28;20458;-76
2022/04/13 07:08:12;;;;;;;0.60;0.10;;;;;;;;;;5033492;28;20461;-78
2022/04/13 07:10:40;;;;;;;0.60;0.10;;;15.80;99.90;;;;;;5035265;28;20446;-77
2022/04/13 07:13:11;;;;;;;0.60;0.10;;;15.90;99.90;;;;;;5032773;28;20889;-77
2022/04/13 07:15:40;;;;;;;0.60;0.10;;;16.00;99.90;;;;;;5033147;28;20478;-75
2022/04/13 07:18:09;;;;;;;0.60;0.10;;;16.00;99.90;;;;;;5032581;28;20448;-76
2022/04/13 07:20:37;;;;;;;0.60;0.10;;;16.20;99.90;;;;;;5033499;28;20819;-75
2022/04/13 07:23:05;;;;;;;0.60;0.10;;;16.20;99.90;;;;;;5033372;28;20922;-76
2022/04/13 07:25:34;;;;;;;0.60;0.10;;;16.30;99.90;;;;;;5032858;28;20833;-76
2022/04/13 07:28:02;;;;;;;0.60;0.17;;;16.40;99.90;;;;;;5032504;28;20455;-76
2022/04/13 07:30:29;;;;;;;0.60;0.10;;;16.40;99.90;;;;;;5033585;28;20554;-75
2022/04/13 07:33:01;;;;;;;0.60;0.10;;;16.60;99.90;;;;;;5033227;28;20475;-77
2022/04/13 07:35:31;;;;;;;0.60;0.10;;;16.60;99.90;;;;;;5033148;28;20538;-75
2022/04/13 07:37:59;;;;;;;0.60;0.10;;;16.80;99.90;;;;;;5032409;28;20576;-76
2022/04/13 07:40:27;;;;;;;0.60;0.10;;;16.80;99.90;;;;;;5033305;28;20455;-76
2022/04/13 07:42:55;;;;;;;0.60;0.10;;;17.00;99.90;;;;;;5033501;28;20457;-76
2022/04/13 07:45:24;;;;;;;0.60;0.10;;;17.00;99.90;;;;;;5031835;28;20556;-77
2022/04/13 07:47:52;;;;;;;0.80;0.57;;;17.10;99.90;;;;;;5046729;28;20863;-76
2022/04/13 07:50:19;;;;;;;0.60;0.10;;;17.10;99.90;;;;;;5052552;28;20551;-76
2022/04/13 07:52:49;;;;;;;0.60;0.10;;;17.20;99.90;;;;;;5038024;28;20847;-75
2022/04/13 07:55:17;;;;;;;0.60;0.10;;;17.30;99.90;;;;;;5041003;28;20480;-76
2022/04/13 07:57:45;;;;;;;0.60;0.10;;;17.30;99.90;;;;;;5033879;28;20590;-78
2022/04/13 08:00:14;;;;;;;0.60;0.10;;;17.50;99.90;;;;;;5056682;28;20495;-77
2022/04/13 08:02:43;;;;;;;0.60;0.20;;;;;;;;;;5053236;28;20446;-78
2022/04/13 08:05:13;;;;;;;0.90;0.70;;;17.60;99.90;;;;;;5033732;28;20480;-79
2022/04/13 08:07:42;;;;;;;0.60;0.20;;;;;;;;;;5032858;28;20443;-76
2022/04/13 08:10:11;;;;;;;0.60;0.10;;;17.50;99.90;;;;;;5033664;28;20450;-76
2022/04/13 08:12:40;;;;;;;0.60;0.10;;;17.60;99.90;;;;;;5031263;28;20953;-78
2022/04/13 08:15:10;;;;;;;0.60;0.20;;;17.70;99.90;;;;;;5041687;28;20924;-77
2022/04/13 08:17:39;;;;;;;0.60;0.10;;;17.80;99.90;;;;;;5054296;28;20505;-76
2022/04/13 08:20:09;;;;;;;0.70;0.57;;;17.80;99.90;;;;;;5054983;28;20478;-78
2022/04/13 08:22:37;;;;;;;0.60;0.13;;;17.90;99.90;;;;;;5055042;28;20527;-76
2022/04/13 08:25:06;;;;;;;0.60;0.10;;;18.00;99.90;;;;;;5052810;28;20597;-78
2022/04/13 08:27:36;;;;;;;0.60;0.10;;;18.00;99.90;;;;;;5034501;28;20480;-76
2022/04/13 08:30:04;;;;;;;0.63;0.20;;;18.10;99.90;;;;;;5044417;28;20563;-76
2022/04/13 08:32:32;;;;;;;0.60;0.10;;;18.30;99.90;;;;;;5054506;28;20446;-76
2022/04/13 08:35:05;;;;;;;0.60;0.10;;;18.40;99.90;;;;;;5050114;28;20457;-76
2022/04/13 08:37:34;;;;;;;0.60;0.10;;;18.50;99.90;;;;;;5052295;28;20560;-76
2022/04/13 08:40:22;;;;;;;0.60;0.10;;;18.70;99.90;;;;;;5053240;28;20599;-76
2022/04/13 08:43:03;;;;;;;0.60;0.20;;;18.70;99.90;;;;;;5052768;28;20976;-76
2022/04/13 08:45:38;;;;;;;0.60;0.20;;;18.80;99.90;;;;;;5052558;28;20469;-77
2022/04/13 08:48:12;;;;;;;0.60;0.20;;;18.90;99.90;;;;;;5051999;28;20447;-77
2022/04/13 08:50:45;;;;;;;0.60;0.10;;;18.90;99.90;;;;;;5034965;28;20451;-77
2022/04/13 08:53:15;;;;;;;0.60;0.10;;;19.00;99.90;;;;;;5032670;28;20455;-76
2022/04/13 08:55:52;;;;;;;0.60;0.10;;;19.10;99.90;;;;;;5081470;23;20910;-78
2022/04/13 08:58:32;;;;;;;0.60;0.20;;;19.20;99.90;;;;;;5068785;28;20473;-78
2022/04/13 09:01:04;;;;;;;0.60;0.10;;;19.30;99.90;;;;;;5063454;28;20451;-78
2022/04/13 09:03:38;;;;;;;0.60;0.10;;;19.40;99.90;;;;;;5068462;28;20455;-77
2022/04/13 09:06:09;;;;;;;0.60;0.10;;;18.90;99.90;;;;;;5073151;28;20440;-78
2022/04/13 09:08:45;;;;;;;0.60;0.10;;;19.50;99.90;;;;;;5073302;28;20475;-76
2022/04/13 09:11:14;;;;;;;0.60;0.10;;;19.60;99.90;;;;;;5070901;28;20451;-77
2022/04/13 09:13:47;;;;;;;0.60;0.10;;;19.60;99.90;;;;;;5062633;28;20893;-77
2022/04/13 09:16:15;;;;;;;0.60;0.10;;;19.50;99.90;;;;;;5057708;28;20461;-79
2022/04/13 09:18:44;;;;;;;0.60;0.20;;;19.50;99.90;;;;;;5058802;28;20476;-77
2022/04/13 09:21:13;;;;;;;0.60;0.10;;;19.50;99.90;;;;;;5058419;28;20532;-77
2022/04/13 09:23:41;;;;;;;0.60;0.13;;;19.50;99.90;;;;;;5059317;28;20456;-77
2022/04/13 09:26:10;;;;;;;0.60;0.20;;;19.60;99.90;;;;;;5055455;28;20473;-77
2022/04/13 09:28:39;;;;;;;0.60;0.20;;;19.70;99.90;;;;;;5057337;28;20441;-77
2022/04/13 09:31:08;;;;;;;0.60;0.20;;;19.70;99.90;;;;;;5056636;28;20772;-77
2022/04/13 09:33:37;;;;;;;0.60;0.10;;;;;;;;;;5056632;28;20469;-77
2022/04/13 09:36:06;;;;;;;0.60;0.10;;;19.90;99.90;;;;;;5057901;28;20470;-77
2022/04/13 09:38:43;;;;;;;0.60;0.20;;;19.90;99.90;;;;;;5057982;28;20489;-80
2022/04/13 09:41:12;;;;;;;0.60;0.10;;;19.90;99.90;;;;;;5057447;28;20461;-77
2022/04/13 09:43:40;;;;;;;0.60;0.20;;;20.00;99.90;;;;;;5056863;28;20444;-78
2022/04/13 09:46:27;;;;;;;0.60;0.10;;;19.90;99.90;;;;;;5058630;28;20879;-80
2022/04/13 09:49:09;;;;;;;0.60;0.10;;;19.90;99.90;;;;;;5056541;28;20527;-77
2022/04/13 09:51:38;;;;;;;0.60;0.10;;;20.00;99.90;;;;;;5036383;28;20819;-78
2022/04/13 09:54:08;;;;;;;0.60;0.20;;;20.20;99.90;;;;;;5052445;28;20533;-76
2022/04/13 09:56:38;;;;;;;0.70;0.20;;;20.30;99.90;;;;;;5055775;28;20455;-77
2022/04/13 09:59:06;;;;;;;0.70;0.20;;;20.40;99.90;;;;;;5054188;28;20473;-76
2022/04/13 10:01:36;;;;;;;0.60;0.10;;;20.50;99.90;;;;;;5058936;28;20456;-79
2022/04/13 10:04:05;;;;;;;0.70;0.20;;;20.60;99.90;;;;;;5060315;28;20542;-77
2022/04/13 10:06:35;;;;;;;0.70;0.10;;;20.80;99.90;;;;;;5059593;28;20528;-76
2022/04/13 10:09:08;;;;;;;0.70;0.17;;;20.90;99.90;;;;;;5060638;28;20433;-78
2022/04/13 10:11:36;;;;;;;0.70;0.10;;;20.90;99.90;;;;;;5060638;28;20441;-77
2022/04/13 10:14:06;;;;;;;0.60;0.10;;;21.20;99.90;;;;;;5060067;28;21169;-76
2022/04/13 10:16:36;;;;;;;0.67;0.20;;;21.20;99.90;;;;;;5057775;28;20531;-76
2022/04/13 10:19:05;;;;;;;0.70;0.20;;;21.20;99.90;;;;;;5059439;28;20503;-76
2022/04/13 10:21:40;;;;;;;0.70;0.10;;;21.30;99.90;;;;;;5062043;28;20481;-77
2022/04/13 10:24:10;;;;;;;0.70;0.10;;;21.40;99.90;;;;;;5063952;28;20529;-77
2022/04/13 10:26:42;;;;;;;0.70;0.10;;;21.30;99.90;;;;;;5065236;28;20508;-76
2022/04/13 10:36:02;;;;;;;0.70;0.20;;;;;;;;;;5056645;28;20480;-79
2022/04/13 10:38:30;;;;;;;0.70;0.17;;;21.90;99.90;;;;;;5105275;28;20516;-78
2022/04/13 10:40:58;;;;;;;0.70;0.10;;;;;;;;;;5103293;28;20500;-78
2022/04/13 10:43:28;;;;;;;0.70;0.20;;;22.20;99.90;;;;;;5105120;28;20441;-78
2022/04/13 10:45:58;;;;;;;0.70;0.20;;;22.20;99.90;;;;;;5104498;28;20465;-76
2022/04/13 10:48:32;;;;;;;0.70;0.10;;;22.30;99.90;;;;;;5104150;28;20437;-78
2022/04/13 10:51:07;;;;;;;0.70;0.20;;;22.40;99.90;;;;;;5102464;28;20445;-77
2022/04/13 10:53:42;;;;;;;0.70;0.10;;;22.40;99.90;;;;;;5090838;28;20539;-77
2022/04/13 10:56:12;;;;;;;0.70;0.20;;;22.40;99.90;;;;;;5132481;22;20498;-76
2022/04/13 10:59:06;;;;;;;0.70;0.10;;;;;;;;;;5043958;28;21101;-78
2022/04/13 11:01:43;;;;;;;0.70;0.20;;;22.60;99.90;;;;;;5040601;28;20451;-79
2022/04/13 11:04:17;;;;;;;0.70;0.20;;;22.70;99.90;;;;;;5048261;28;20442;-76
2022/04/13 11:06:46;;;;;;;0.70;0.20;;;22.70;99.90;;;;;;5068325;28;20813;-78
2022/04/13 11:09:21;;;;;;;0.70;0.10;;;22.70;99.90;;;;;;5051432;28;20511;-78
2022/04/13 11:11:50;;;;;;;0.70;0.20;;;22.70;99.90;;;;;;5046860;28;20468;-77
2022/04/13 11:14:19;;;;;;;0.70;0.20;;;22.80;99.90;;;;;;5040889;28;21190;-77
2022/04/13 11:16:47;;;;;;;0.70;0.10;;;22.80;99.90;;;;;;5039762;28;20535;-78
2022/04/13 11:19:21;;;;;;;0.70;0.10;;;23.00;99.90;;;;;;5041589;28;20954;-76
2022/04/13 11:22:14;;;;;;;0.70;0.10;;;23.10;99.90;;;;;;5038847;28;20439;-77
2022/04/13 11:24:54;;;;;;;0.70;0.10;;;23.30;99.90;;;;;;5040316;28;20467;-77
2022/04/13 11:27:22;;;;;;;0.70;0.10;;;23.20;99.90;;;;;;5061417;28;20503;-77
2022/04/13 11:30:00;;;;;;;0.70;0.10;;;23.20;99.90;;;;;;5041992;28;20456;-76
2022/04/13 11:32:32;;;;;;;0.70;0.20;;;23.20;99.90;;;;;;5044503;28;20515;-77
2022/04/13 11:35:03;;;;;;;0.70;0.10;;;23.30;99.90;;;;;;5055303;28;20551;-77
2022/04/13 11:38:05;;;;;;;0.70;0.10;;;23.30;99.90;;;;;;5047280;28;20412;-77
2022/04/13 11:40:33;;;;;;;0.70;0.10;;;23.30;99.90;;;;;;5052509;28;20459;-77
2022/04/13 11:43:04;;;;;;;0.70;0.10;;;23.40;99.90;;;;;;5045820;28;20452;-77
2022/04/13 11:45:42;;;;;;;0.70;0.10;;;;;;;;;;5042566;28;20542;-78
2022/04/13 11:51:30;;;;;;;0.70;0.10;;;;;;;;;;5035429;28;20504;-78
2022/04/13 11:54:09;;;;;;;0.70;0.27;;;23.50;99.90;;;;;;5020087;28;20535;-77
2022/04/13 11:56:38;;;;;;;0.70;0.10;;;23.70;99.90;;;;;;5021304;28;20461;-77
2022/04/13 11:59:52;;;;;;;0.70;0.10;;;23.80;99.90;;;;;;5023756;28;20477;-78
2022/04/13 12:02:25;;;;;;;0.70;0.20;;;;;;;;;;5020419;28;20448;-77
2022/04/13 12:05:02;;;;;;;0.70;0.10;;;;;;;;;;5016846;28;20483;-77
2022/04/13 12:07:31;;;;;;;0.70;0.20;;;;;;;;;;5020468;28;20441;-76
2022/04/13 12:10:00;;;;;;;0.70;0.10;;;24.50;99.90;;;;;;5017821;28;20465;-78
2022/04/13 12:12:28;;;;;;;0.70;0.10;;;24.70;99.90;;;;;;5017247;28;20462;-76
2022/04/13 12:14:57;;;;;;;0.70;0.20;;;24.80;99.90;;;;;;5015961;28;20479;-77
2022/04/13 12:17:25;;;;;;;0.80;0.40;;;24.80;99.90;;;;;;5021639;28;20833;-78
2022/04/13 12:19:54;;;;;;;0.70;0.40;;;24.80;99.90;;;;;;5036014;28;20571;-77
2022/04/13 12:22:22;;;;;;;0.70;0.10;;;24.60;99.90;;;;;;5036186;28;20464;-77
2022/04/13 12:25:00;;;;;;;0.70;0.10;;;24.50;99.90;;;;;;5035530;28;20475;-77
2022/04/13 12:27:28;;;;;;;0.70;0.10;;;24.40;99.90;;;;;;5017150;28;20525;-77
2022/04/13 12:30:12;;;;;;;0.80;0.43;;;24.20;99.90;;;;;;5017785;28;20447;-77
2022/04/13 12:32:45;;;;;;;0.70;0.10;;;24.20;99.90;;;;;;5025428;28;20450;-76
2022/04/13 12:35:14;;;;;;;0.70;0.20;;;24.10;99.90;;;;;;5038687;28;20485;-77
2022/04/13 12:37:53;;;;;;;0.70;0.20;;;24.10;99.90;;;;;;5037585;28;20480;-77
2022/04/13 12:40:25;;;;;;;0.70;0.10;;;24.10;99.90;;;;;;5040967;28;20479;-78
2022/04/13 12:42:54;;;;;;;2.20;1.33;;;24.10;99.90;;;;;;5042055;28;20439;-76
2022/04/13 12:45:28;;;;;;;0.70;0.10;;;24.20;99.90;;;;;;5047141;28;20475;-78
2022/04/13 12:47:57;;;;;;;6.07;5.77;;;24.20;99.90;;;;;;5045995;28;20459;-77
2022/04/13 12:50:25;;;;;;;0.70;0.13;;;24.20;99.90;;;;;;5040306;28;20535;-77
2022/04/13 12:52:58;;;;;;;0.70;0.17;;;24.30;99.90;;;;;;5036614;28;20447;-77
2022/04/13 12:55:28;;;;;;;0.70;0.10;;;24.50;99.90;;;;;;5036707;28;20527;-76
2022/04/13 12:57:58;;;;;;;0.70;0.10;;;24.60;99.90;;;;;;5040411;28;20799;-77
2022/04/13 13:00:50;;;;;;;0.70;0.13;;;24.70;99.90;;;;;;5037914;28;20475;-78
2022/04/13 13:03:20;;;;;;;1.97;1.87;;;24.70;99.90;;;;;;5037234;28;20453;-75
2022/04/13 13:05:58;;;;;;;0.70;0.10;;;24.90;99.90;;;;;;5037273;28;20466;-77
2022/04/13 13:08:26;;;;;;;0.70;0.10;;;24.90;99.90;;;;;;5035481;28;20534;-77
2022/04/13 13:10:59;;;;;;;0.70;0.10;;;25.10;99.90;;;;;;5035065;28;20452;-77
2022/04/13 13:13:37;;;;;;;0.70;0.20;;;25.10;99.90;;;;;;5035334;28;21310;-76
2022/04/13 13:16:06;;;;;;;0.70;0.10;;;;;;;;;;5035920;28;20551;-78
2022/04/13 13:18:36;;;;;;;0.70;0.10;;;25.20;99.90;;;;;;5037961;28;20445;-77
2022/04/13 13:21:04;;;;;;;0.70;0.10;;;25.20;99.90;;;;;;5038388;28;20475;-78